Decoded Metar for CYXR (EARLTON in ON, CANADA) (IATA:YXR) | Meteo·Mobile Aviation Weather
aviador You're here:

CYXR Decoded Metar

EARLTON in ON, CANADA
Report Time2019-03-22 10:00:00
UTC Time2019-03-22 10:30:53
Flight Rules mvfr MVFR
Wind320° at 16 Gusting to 25 kt
W.Decomp.*RWY 34: 15.8 kt HW 2.2 kt LCW
RWY 26: 4.9 kt HW 15.2 kt RCW
W.Rank320° ranks 3
Current wind is above 320° avg. (9.3)
Visibility9999 m
Phenomena:Light Snow
Clouds:Overcast 019 Hf
Expected CloudBase > 800 ft AGL from Temp-Dew spread
Ceiling1,900 ft
Temp-4°C (ISA -17)
Dew Point-6°C (86% RH)
AAT-12.5°C
QNH1006 hPa
Density Alt-1,050 ft
Elevation797 ft
Report Wrong Elevation
Raw Report
CYXR 221000Z AUTO 32016G25KT 7SM -SN OVC019 M04/M06 A2972 RMK ICG
PRESRR SLP077=

Extra information for CYXR:More info

Metar Taf Metar & Taf Last 4 Metars F.Rules Stats Wind Profile Meteogram Temp Stats Airport Information Weather charts Add Link Nearby VenuesMetar ALERT Operation Metar Decoded Social comments